createdAt,value
2022-08-03T00:01:43.066Z,50.58
2022-08-03T00:04:11.121Z,50.52
2022-08-03T00:06:38.292Z,50.62
2022-08-03T00:09:06.014Z,50.79
2022-08-03T00:11:33.418Z,50.45
2022-08-03T00:14:00.611Z,51.00
2022-08-03T00:16:27.557Z,51.29
2022-08-03T00:18:54.488Z,51.74
2022-08-03T00:21:21.385Z,50.79
2022-08-03T00:23:51.921Z,50.65
2022-08-03T00:26:21.024Z,50.54
2022-08-03T00:28:48.985Z,49.93
2022-08-03T00:31:16.159Z,49.63
2022-08-03T00:33:59.533Z,49.25
2022-08-03T00:36:29.965Z,47.16
2022-08-03T00:38:56.873Z,48.64
2022-08-03T00:41:23.765Z,48.07
2022-08-03T00:43:50.901Z,46.23
2022-08-03T00:46:21.640Z,46.30
2022-08-03T00:48:52.342Z,46.53
2022-08-03T00:51:21.766Z,46.20
2022-08-03T00:53:49.844Z,46.79
2022-08-03T00:56:17.771Z,47.04
2022-08-03T00:58:46.223Z,47.48
2022-08-03T01:01:14.126Z,47.52
2022-08-03T01:03:41.411Z,47.32
2022-08-03T01:06:16.051Z,47.65
2022-08-03T01:09:01.790Z,47.97
2022-08-03T01:12:11.056Z,47.54
2022-08-03T01:14:47.178Z,48.01
2022-08-03T01:17:39.979Z,47.86
2022-08-03T01:20:11.894Z,48.09
2022-08-03T01:22:59.710Z,48.87
2022-08-03T01:26:14.632Z,49.47
2022-08-03T01:29:30.546Z,49.19
2022-08-03T01:32:58.490Z,49.60
2022-08-03T01:35:22.881Z,50.02
2022-08-03T01:37:58.826Z,49.50
2022-08-03T01:40:28.521Z,49.32
2022-08-03T01:42:58.096Z,49.29
2022-08-03T01:45:27.728Z,48.68
2022-08-03T01:47:55.632Z,49.16
2022-08-03T01:50:27.987Z,49.04
2022-08-03T01:52:56.830Z,49.11
2022-08-03T01:55:29.290Z,49.10
2022-08-03T01:58:06.006Z,49.34
2022-08-03T02:00:37.857Z,49.49
2022-08-03T02:03:07.307Z,49.75
2022-08-03T02:05:35.044Z,50.20
2022-08-03T02:08:05.115Z,50.05
2022-08-03T02:10:35.128Z,50.61
2022-08-03T02:13:05.982Z,50.44
2022-08-03T02:15:36.522Z,50.81
2022-08-03T02:18:07.977Z,50.91
2022-08-03T02:20:37.676Z,51.69
2022-08-03T02:23:06.542Z,51.58
2022-08-03T02:25:45.047Z,51.41
2022-08-03T02:28:20.016Z,51.57
2022-08-03T02:30:54.440Z,51.56
2022-08-03T02:33:33.317Z,52.04
2022-08-03T02:36:02.797Z,51.38
2022-08-03T02:38:34.731Z,51.12
2022-08-03T02:41:07.099Z,51.08
2022-08-03T02:43:57.643Z,51.21
2022-08-03T02:46:34.163Z,51.32
2022-08-03T02:49:40.790Z,51.09
2022-08-03T02:51:55.023Z,50.93
2022-08-03T02:54:25.002Z,51.07
2022-08-03T02:56:54.442Z,50.93
2022-08-03T02:59:23.615Z,50.82
2022-08-03T03:01:51.808Z,50.77
2022-08-03T03:04:19.265Z,51.19
2022-08-03T03:06:49.129Z,51.17
2022-08-03T03:09:16.977Z,51.27
2022-08-03T03:11:44.974Z,51.75
2022-08-03T03:14:13.416Z,51.66
2022-08-03T03:16:43.777Z,51.60
2022-08-03T03:19:13.313Z,51.34
2022-08-03T03:21:41.024Z,51.58
2022-08-03T03:24:09.568Z,51.90
2022-08-03T03:26:42.099Z,51.84
2022-08-03T03:29:09.786Z,51.93
2022-08-03T03:31:37.211Z,51.99
2022-08-03T03:34:05.085Z,52.12
2022-08-03T03:36:33.627Z,52.46
2022-08-03T03:39:00.511Z,51.92
2022-08-03T03:41:43.651Z,52.16
2022-08-03T03:44:10.598Z,52.21
2022-08-03T03:46:39.106Z,52.45
2022-08-03T03:49:10.144Z,52.19
2022-08-03T03:51:37.106Z,52.23
2022-08-03T03:54:06.917Z,51.77
2022-08-03T03:56:36.312Z,51.89
2022-08-03T03:59:03.361Z,51.57
2022-08-03T04:01:31.172Z,51.80
2022-08-03T04:03:58.845Z,51.99
2022-08-03T04:06:43.950Z,52.16
2022-08-03T04:09:30.130Z,52.11
2022-08-03T04:12:01.023Z,52.34
2022-08-03T04:14:35.418Z,52.68
2022-08-03T04:17:06.197Z,52.64
2022-08-03T04:19:43.820Z,52.92
2022-08-03T04:22:12.774Z,52.93
2022-08-03T04:24:53.714Z,53.08
2022-08-03T04:27:29.121Z,52.72
2022-08-03T04:29:57.897Z,52.76
2022-08-03T04:32:28.617Z,51.82
2022-08-03T04:34:55.988Z,51.16
2022-08-03T04:37:47.885Z,50.95
2022-08-03T04:40:30.517Z,50.77
2022-08-03T04:42:59.144Z,50.42
2022-08-03T04:45:28.993Z,49.70
2022-08-03T04:47:56.412Z,49.58
2022-08-03T04:50:23.819Z,49.59
2022-08-03T04:52:50.690Z,48.92
2022-08-03T04:55:32.895Z,49.26
2022-08-03T04:58:00.803Z,49.07
2022-08-03T05:00:28.515Z,48.22
2022-08-03T05:02:55.999Z,47.84
2022-08-03T05:05:23.477Z,47.31
2022-08-03T05:07:51.249Z,46.71
2022-08-03T05:10:18.179Z,47.20
2022-08-03T05:12:48.056Z,47.09
2022-08-03T05:15:15.146Z,46.81
2022-08-03T05:17:42.038Z,46.25
2022-08-03T05:20:10.043Z,46.24
2022-08-03T05:22:36.936Z,45.57
2022-08-03T05:25:04.538Z,44.87
2022-08-03T05:27:31.406Z,44.10
2022-08-03T05:30:31.685Z,43.58
2022-08-03T05:32:45.817Z,43.18
2022-08-03T05:36:02.062Z,42.11
2022-08-03T05:37:59.560Z,41.64
2022-08-03T05:40:26.843Z,40.22
2022-08-03T05:42:53.819Z,39.42
2022-08-03T05:45:23.178Z,38.76
2022-08-03T05:47:52.280Z,38.21
2022-08-03T05:50:20.077Z,37.41
2022-08-03T05:52:47.346Z,36.33
2022-08-03T05:55:15.001Z,35.50
2022-08-03T05:57:42.414Z,34.09
2022-08-03T06:00:12.575Z,33.14
2022-08-03T06:02:43.077Z,31.43
2022-08-03T06:05:10.786Z,30.56
2022-08-03T06:07:37.946Z,29.43
2022-08-03T06:10:35.998Z,29.49
2022-08-03T06:12:52.947Z,28.50
2022-08-03T06:15:20.573Z,28.38
2022-08-03T06:17:51.723Z,27.67
2022-08-03T06:20:20.575Z,27.58
2022-08-03T06:22:50.703Z,27.57
2022-08-03T06:25:19.318Z,26.25
2022-08-03T06:27:48.559Z,25.70
2022-08-03T06:30:20.982Z,24.53
2022-08-03T06:32:51.675Z,23.40
2022-08-03T06:35:19.633Z,23.19
2022-08-03T06:37:49.157Z,22.47
2022-08-03T06:40:29.590Z,21.65
2022-08-03T06:42:58.781Z,22.02
2022-08-03T06:45:26.255Z,20.66
2022-08-03T06:48:10.183Z,19.92
2022-08-03T06:50:39.665Z,19.86
2022-08-03T06:53:07.533Z,19.72
2022-08-03T06:55:35.473Z,18.80
2022-08-03T06:58:09.196Z,18.66
2022-08-03T07:00:36.083Z,19.00
2022-08-03T07:03:03.099Z,18.47
2022-08-03T07:05:30.679Z,18.30
2022-08-03T07:07:59.172Z,18.79
2022-08-03T07:10:26.181Z,18.31
2022-08-03T07:12:56.511Z,18.94
2022-08-03T07:15:55.583Z,19.19
2022-08-03T07:18:11.176Z,20.04
2022-08-03T07:20:38.105Z,20.38
2022-08-03T07:23:04.989Z,20.66
2022-08-03T07:25:31.879Z,20.51
2022-08-03T07:27:58.894Z,21.31
2022-08-03T07:30:25.874Z,21.56
2022-08-03T07:32:53.417Z,22.10
2022-08-03T07:35:24.737Z,22.51
2022-08-03T07:37:54.453Z,22.76
2022-08-03T07:40:22.807Z,23.00
2022-08-03T07:42:53.397Z,23.78
2022-08-03T07:45:23.282Z,23.74
2022-08-03T07:47:53.883Z,24.45
2022-08-03T07:50:22.051Z,25.02
2022-08-03T07:52:50.447Z,24.85
2022-08-03T07:55:21.982Z,25.29
2022-08-03T07:58:09.726Z,25.79
2022-08-03T08:00:36.832Z,25.49
2022-08-03T08:03:04.743Z,25.38
2022-08-03T08:05:31.910Z,26.05
2022-08-03T08:07:58.876Z,26.38
2022-08-03T08:10:25.878Z,26.18
2022-08-03T08:12:52.915Z,26.33
2022-08-03T08:15:19.861Z,26.88
2022-08-03T08:17:48.391Z,26.83
2022-08-03T08:20:30.727Z,27.12
2022-08-03T08:23:02.011Z,27.39
2022-08-03T08:25:31.821Z,27.36
2022-08-03T08:28:31.637Z,27.82
2022-08-03T08:30:51.336Z,27.71
2022-08-03T08:33:22.560Z,27.91
2022-08-03T08:35:51.953Z,27.67
2022-08-03T08:38:18.962Z,27.86
2022-08-03T08:40:46.230Z,27.88
2022-08-03T08:43:13.199Z,27.91
2022-08-03T08:45:41.690Z,29.23
2022-08-03T08:48:10.765Z,28.41
2022-08-03T08:50:38.889Z,28.28
2022-08-03T08:53:10.745Z,27.94
2022-08-03T08:55:58.730Z,28.23
2022-08-03T08:58:31.254Z,27.84
2022-08-03T09:00:58.376Z,28.19
2022-08-03T09:03:29.250Z,28.40
2022-08-03T09:06:00.151Z,28.19
2022-08-03T09:08:27.075Z,27.80
2022-08-03T09:10:53.974Z,28.25
2022-08-03T09:13:21.348Z,28.88
2022-08-03T09:16:00.856Z,28.01
2022-08-03T09:18:32.784Z,26.85
2022-08-03T09:21:32.170Z,26.71
2022-08-03T09:24:04.112Z,26.74
2022-08-03T09:26:36.152Z,27.49
2022-08-03T09:29:07.213Z,27.35
2022-08-03T09:31:44.357Z,26.66
2022-08-03T09:34:15.151Z,26.53
2022-08-03T09:36:50.148Z,26.72
2022-08-03T09:39:41.678Z,27.14
2022-08-03T09:42:15.729Z,26.35
2022-08-03T09:44:48.424Z,26.26
2022-08-03T09:47:28.509Z,25.89
2022-08-03T09:50:06.010Z,26.16
2022-08-03T09:52:50.257Z,26.40
2022-08-03T09:56:34.811Z,25.79
2022-08-03T09:58:10.418Z,25.31
2022-08-03T10:01:07.858Z,25.38
2022-08-03T10:04:03.427Z,25.83
2022-08-03T10:06:31.671Z,25.96
2022-08-03T10:09:16.429Z,26.49
2022-08-03T10:11:46.700Z,26.46
2022-08-03T10:14:20.115Z,26.01
2022-08-03T10:16:48.301Z,26.01
2022-08-03T10:19:16.253Z,25.77
2022-08-03T10:21:55.783Z,26.09
2022-08-03T10:24:27.351Z,25.97
2022-08-03T10:27:04.443Z,26.21
2022-08-03T10:29:38.691Z,26.12
2022-08-03T10:32:35.810Z,26.26
2022-08-03T10:35:23.317Z,26.05
2022-08-03T10:38:02.583Z,26.48
2022-08-03T10:40:48.075Z,26.17
2022-08-03T10:43:28.949Z,25.38
2022-08-03T10:45:56.751Z,25.52
2022-08-03T10:48:24.322Z,25.57
2022-08-03T10:50:51.974Z,25.65
2022-08-03T10:53:36.606Z,25.53
2022-08-03T10:56:35.399Z,25.81
2022-08-03T10:59:10.640Z,26.44
2022-08-03T11:02:00.231Z,26.57
2022-08-03T11:04:29.547Z,26.21
2022-08-03T11:07:15.899Z,26.01
2022-08-03T11:09:47.533Z,25.80
2022-08-03T11:12:30.597Z,26.92
2022-08-03T11:15:09.189Z,26.29
2022-08-03T11:17:46.925Z,27.16
2022-08-03T11:20:48.445Z,26.73
2022-08-03T11:23:18.186Z,27.33
2022-08-03T11:26:19.037Z,27.26
2022-08-03T11:28:47.576Z,27.72
2022-08-03T11:31:48.183Z,27.54
2022-08-03T11:34:12.852Z,27.64
2022-08-03T11:37:22.114Z,28.32
2022-08-03T11:39:52.921Z,28.23
2022-08-03T11:42:23.010Z,28.73
2022-08-03T11:45:00.027Z,28.52
2022-08-03T11:47:29.327Z,29.17
2022-08-03T11:50:00.138Z,28.83
2022-08-03T11:52:34.887Z,29.54
2022-08-03T11:55:02.343Z,29.61
2022-08-03T11:59:01.814Z,29.19
2022-08-03T12:00:27.053Z,29.21
2022-08-03T12:03:02.320Z,29.16
2022-08-03T12:05:52.715Z,27.84
2022-08-03T12:08:32.027Z,28.25
2022-08-03T12:11:04.401Z,28.72
2022-08-03T12:14:45.382Z,28.62
2022-08-03T12:16:36.713Z,29.26
2022-08-03T12:19:06.781Z,29.29
2022-08-03T12:21:33.804Z,29.22
2022-08-03T12:24:05.434Z,28.44
2022-08-03T12:26:56.781Z,27.75
2022-08-03T12:29:26.315Z,27.96
2022-08-03T12:31:53.257Z,28.27
2022-08-03T12:34:20.209Z,28.92
2022-08-03T12:36:53.289Z,29.01
2022-08-03T12:39:25.594Z,28.24
2022-08-03T12:41:56.939Z,27.75
2022-08-03T12:44:35.525Z,27.86
2022-08-03T12:47:04.296Z,27.93
2022-08-03T12:49:49.809Z,28.00
2022-08-03T12:52:19.254Z,28.19
2022-08-03T12:55:00.017Z,28.23
2022-08-03T12:57:43.195Z,27.32
2022-08-03T13:00:21.674Z,27.86
2022-08-03T13:03:38.829Z,27.90
2022-08-03T13:06:01.348Z,27.21
2022-08-03T13:08:28.225Z,28.43
2022-08-03T13:10:55.207Z,28.82
2022-08-03T13:13:40.896Z,28.88
2022-08-03T13:16:07.774Z,28.68
2022-08-03T13:18:34.591Z,28.19
2022-08-03T13:21:02.271Z,27.96
2022-08-03T13:23:29.269Z,27.89
2022-08-03T13:25:56.344Z,28.32
2022-08-03T13:28:23.448Z,28.77
2022-08-03T13:30:50.406Z,28.47
2022-08-03T13:33:17.690Z,28.18
2022-08-03T13:35:44.526Z,28.04
2022-08-03T13:38:11.506Z,29.29
2022-08-03T13:40:41.842Z,29.43
2022-08-03T13:43:09.098Z,28.82
2022-08-03T13:45:36.249Z,28.78
2022-08-03T13:48:03.133Z,28.69
2022-08-03T13:50:31.288Z,28.21
2022-08-03T13:52:58.665Z,28.41
2022-08-03T13:55:25.813Z,28.22
2022-08-03T13:58:06.102Z,27.90
2022-08-03T14:00:34.704Z,27.79
2022-08-03T14:03:13.384Z,27.81
2022-08-03T14:05:43.479Z,27.94
2022-08-03T14:08:11.174Z,28.09
2022-08-03T14:10:41.803Z,28.11
2022-08-03T14:13:17.800Z,27.33
2022-08-03T14:15:50.038Z,26.79
2022-08-03T14:18:28.804Z,27.60
2022-08-03T14:21:06.655Z,26.24
2022-08-03T14:23:36.344Z,26.73
2022-08-03T14:26:05.083Z,25.79
2022-08-03T14:28:32.021Z,25.60
2022-08-03T14:30:59.435Z,25.90
2022-08-03T14:33:28.283Z,25.79
2022-08-03T14:35:55.904Z,25.35
2022-08-03T14:38:22.978Z,25.90
2022-08-03T14:40:51.326Z,25.76
2022-08-03T14:43:20.070Z,26.76
2022-08-03T14:45:48.686Z,26.41
2022-08-03T14:50:29.015Z,26.56
2022-08-03T14:51:02.502Z,26.12
2022-08-03T14:53:30.006Z,26.21
2022-08-03T14:55:57.094Z,25.81
2022-08-03T14:58:28.141Z,25.64
2022-08-03T15:00:56.442Z,25.43
2022-08-03T15:03:25.191Z,24.94
2022-08-03T15:06:01.215Z,24.72
2022-08-03T15:08:28.064Z,25.47
2022-08-03T15:10:55.490Z,26.25
2022-08-03T15:13:22.882Z,26.29
2022-08-03T15:15:51.603Z,26.47
2022-08-03T15:18:20.030Z,26.20
2022-08-03T15:20:48.981Z,25.99
2022-08-03T15:23:17.264Z,26.59
2022-08-03T15:26:02.191Z,26.96
2022-08-03T15:28:32.825Z,26.67
2022-08-03T15:31:00.519Z,26.68
2022-08-03T15:33:28.065Z,25.58
2022-08-03T15:35:55.066Z,27.01
2022-08-03T15:38:25.816Z,26.51
2022-08-03T15:40:54.496Z,26.13
2022-08-03T15:43:22.927Z,26.57
2022-08-03T15:46:12.688Z,25.98
2022-08-03T15:48:36.943Z,26.79
2022-08-03T15:51:05.339Z,27.17
2022-08-03T15:53:33.532Z,26.44
2022-08-03T15:56:04.208Z,26.41
2022-08-03T15:59:09.685Z,26.42
2022-08-03T16:01:21.269Z,25.91
2022-08-03T16:03:48.273Z,25.62
2022-08-03T16:06:15.245Z,26.33
2022-08-03T16:08:42.151Z,25.90
2022-08-03T16:11:09.151Z,25.64
2022-08-03T16:14:05.552Z,25.15
2022-08-03T16:16:23.278Z,24.88
2022-08-03T16:18:50.115Z,24.65
2022-08-03T16:21:19.494Z,25.17
2022-08-03T16:23:50.033Z,25.08
2022-08-03T16:26:19.118Z,25.72
2022-08-03T16:28:45.996Z,25.18
2022-08-03T16:31:12.887Z,26.43
2022-08-03T16:33:40.133Z,25.75
2022-08-03T16:36:07.098Z,26.44
2022-08-03T16:38:33.933Z,26.13
2022-08-03T16:41:00.809Z,26.66
2022-08-03T16:43:28.280Z,26.19
2022-08-03T16:45:55.231Z,26.33
2022-08-03T16:48:22.122Z,26.83
2022-08-03T16:50:49.180Z,26.31
2022-08-03T16:53:16.832Z,26.48
2022-08-03T16:55:53.391Z,26.86
2022-08-03T16:58:41.861Z,27.08
2022-08-03T17:01:21.704Z,27.10
2022-08-03T17:04:01.369Z,27.46
2022-08-03T17:06:34.982Z,27.13
2022-08-03T17:09:09.836Z,26.54
2022-08-03T17:11:46.915Z,26.53
2022-08-03T17:14:22.083Z,26.30
2022-08-03T17:16:54.073Z,27.15
2022-08-03T17:19:24.471Z,27.06
2022-08-03T17:22:21.283Z,26.85
2022-08-03T17:24:53.887Z,26.88
2022-08-03T17:28:49.513Z,27.17
2022-08-03T17:30:17.474Z,27.22
2022-08-03T17:32:57.203Z,26.35
2022-08-03T17:35:36.514Z,26.29
2022-08-03T17:38:10.518Z,27.12
2022-08-03T17:40:48.097Z,27.52
2022-08-03T17:44:12.871Z,27.48
2022-08-03T17:46:07.085Z,27.78
2022-08-03T17:48:34.375Z,29.54
2022-08-03T17:51:20.369Z,28.47
2022-08-03T17:54:21.484Z,28.84
2022-08-03T17:57:22.552Z,28.76
2022-08-03T18:00:27.995Z,28.39
2022-08-03T18:03:57.684Z,29.01
2022-08-03T18:06:28.723Z,28.88
2022-08-03T18:09:04.934Z,29.22
2022-08-03T18:11:53.664Z,30.29
2022-08-03T18:15:00.700Z,29.85
2022-08-03T18:17:58.082Z,30.01
2022-08-03T18:20:31.200Z,29.92
2022-08-03T18:23:04.839Z,29.91
2022-08-03T18:25:45.162Z,30.07
2022-08-03T18:28:18.870Z,30.41
2022-08-03T18:30:54.277Z,29.94
2022-08-03T18:34:18.689Z,30.35
2022-08-03T18:36:21.857Z,30.62
2022-08-03T18:38:58.423Z,30.62
2022-08-03T18:41:32.961Z,30.86
2022-08-03T18:44:08.867Z,31.10
2022-08-03T18:47:52.037Z,30.97
2022-08-03T18:50:34.181Z,31.76
2022-08-03T18:54:02.790Z,31.04
2022-08-03T18:56:34.688Z,31.83
2022-08-03T18:59:47.116Z,31.94
2022-08-03T19:03:04.504Z,32.01
2022-08-03T19:05:52.999Z,32.24
2022-08-03T19:08:32.350Z,32.06
2022-08-03T19:11:06.077Z,32.02
2022-08-03T19:13:50.220Z,31.93
2022-08-03T19:16:32.272Z,32.05
2022-08-03T19:19:02.051Z,32.95
2022-08-03T19:21:30.251Z,32.33
2022-08-03T19:24:09.771Z,33.24
2022-08-03T19:26:39.593Z,32.53
2022-08-03T19:29:10.826Z,33.09
2022-08-03T19:31:59.071Z,32.82
2022-08-03T19:34:30.413Z,33.49
2022-08-03T19:36:58.784Z,33.57
2022-08-03T19:39:26.081Z,33.80
2022-08-03T19:42:07.967Z,33.81
2022-08-03T19:44:43.571Z,33.97
2022-08-03T19:47:17.406Z,34.08
2022-08-03T19:50:05.379Z,33.67
2022-08-03T19:52:38.359Z,34.63
2022-08-03T19:55:12.251Z,34.44
2022-08-03T19:57:43.499Z,34.82
2022-08-03T20:03:02.385Z,34.63
2022-08-03T20:05:29.649Z,33.92
2022-08-03T20:08:12.165Z,33.96
2022-08-03T20:10:39.057Z,34.08
2022-08-03T20:13:06.692Z,33.85
2022-08-03T20:15:34.970Z,33.99
2022-08-03T20:18:16.747Z,34.46
2022-08-03T20:20:48.527Z,34.12
2022-08-03T20:23:20.119Z,34.20
2022-08-03T20:25:58.814Z,34.08
2022-08-03T20:28:35.567Z,35.66
2022-08-03T20:31:18.777Z,35.58
2022-08-03T20:33:49.068Z,35.94
2022-08-03T20:36:18.698Z,36.05
2022-08-03T20:41:35.326Z,35.84
2022-08-03T20:44:04.380Z,36.34
2022-08-03T20:46:41.688Z,36.04
2022-08-03T20:49:21.253Z,36.19
2022-08-03T20:51:53.196Z,36.98
2022-08-03T20:54:29.705Z,36.43
2022-08-03T20:57:03.990Z,37.11
2022-08-03T20:59:51.244Z,36.71
2022-08-03T21:02:28.788Z,36.88
2022-08-03T21:04:58.824Z,37.44
2022-08-03T21:08:04.161Z,37.81
2022-08-03T21:13:03.270Z,34.41
2022-08-03T21:13:08.183Z,37.30
2022-08-03T21:13:14.252Z,35.67
2022-08-03T21:16:02.622Z,38.01
2022-08-03T21:18:43.700Z,38.04
2022-08-03T21:21:16.615Z,38.68
2022-08-03T21:23:47.974Z,38.84
2022-08-03T21:26:19.070Z,38.38
2022-08-03T21:28:48.791Z,38.53
2022-08-03T21:31:25.485Z,39.33
2022-08-03T21:34:01.244Z,39.32
2022-08-03T21:36:31.355Z,39.03
2022-08-03T21:38:59.639Z,39.05
2022-08-03T21:41:30.545Z,39.72
2022-08-03T21:43:59.072Z,39.65
2022-08-03T21:46:30.705Z,39.46
2022-08-03T21:50:07.080Z,39.59
2022-08-03T21:51:52.263Z,39.99
2022-08-03T21:54:21.117Z,40.11
2022-08-03T21:56:51.161Z,40.11
2022-08-03T21:59:20.498Z,39.86
2022-08-03T22:01:49.179Z,40.56
2022-08-03T22:04:42.671Z,39.99
2022-08-03T22:07:08.433Z,40.02
2022-08-03T22:09:36.391Z,40.24
2022-08-03T22:12:03.821Z,40.35
2022-08-03T22:14:33.277Z,40.29
2022-08-03T22:17:03.560Z,40.73
2022-08-03T22:19:34.149Z,40.79
2022-08-03T22:22:05.932Z,40.32
2022-08-03T22:24:36.531Z,41.87
2022-08-03T22:27:23.221Z,41.42
2022-08-03T22:29:51.684Z,42.10
2022-08-03T22:32:18.596Z,42.17
2022-08-03T22:34:47.737Z,41.75
2022-08-03T22:37:17.752Z,41.90
2022-08-03T22:39:45.863Z,41.66
2022-08-03T22:42:13.952Z,42.54
2022-08-03T22:44:41.080Z,43.11
2022-08-03T22:47:09.819Z,42.98
2022-08-03T22:49:37.871Z,43.28
2022-08-03T22:52:07.380Z,43.71
2022-08-03T22:54:35.875Z,43.41
2022-08-03T22:57:03.960Z,43.67
2022-08-03T22:59:38.831Z,44.17
2022-08-03T23:02:21.185Z,43.81
2022-08-03T23:04:55.646Z,44.37
2022-08-03T23:07:37.519Z,43.74
2022-08-03T23:10:08.411Z,44.24
2022-08-03T23:12:38.288Z,43.55
2022-08-03T23:15:14.484Z,44.15
2022-08-03T23:17:57.540Z,42.84
2022-08-03T23:20:26.913Z,43.19
2022-08-03T23:22:57.740Z,43.03
2022-08-03T23:25:25.523Z,43.89
2022-08-03T23:28:05.067Z,42.80
2022-08-03T23:30:34.902Z,42.90
2022-08-03T23:33:03.071Z,43.14
2022-08-03T23:36:20.205Z,42.81
2022-08-03T23:38:37.380Z,42.57
2022-08-03T23:41:05.203Z,42.54
2022-08-03T23:43:52.127Z,42.49
2022-08-03T23:46:22.452Z,43.29
2022-08-03T23:48:50.263Z,43.72
2022-08-03T23:51:39.966Z,44.21
2022-08-03T23:54:19.099Z,44.74
2022-08-03T23:57:09.212Z,44.90
